Terminal Aerodrome Forecast
Issued by NWS

Home | Current Version | Previous Version | Text Only | Print | Product List | Glossary Off
Versions: 1 2 3 4 5 6 7 8 9 10 11 12 13

000
FTUS43 KMPX 021120
TAFAXN
TAF
KAXN 021120Z 0212/0312 19007KT P6SM SCT250
     FM021600 21010KT P6SM SCT250
     FM021900 20013G18KT P6SM SCT150
     FM030100 18006KT P6SM BKN150
     FM030700 12006KT P6SM VCSH SCT040 OVC080=

USA.gov is the U.S. government's official web portal to all federal, state and local government web resources and services.